Date,TemperatureHighF,TemperatureAvgF,TemperatureLowF,DewpointHighF,DewpointAvgF,DewpointLowF,HumidityHigh,HumidityAvg,HumidityLow,PressureMaxIn,PressureMinIn,WindSpeedMaxMPH,WindSpeedAvgMPH,GustSpeedMaxMPH,PrecipitationSumIn
2013-3-1,31,30,29,25,23,20,81,75,63,30.15,30.05,14,10,19,0.00
2013-3-2,34,28,23,23,17,14,80,64,47,30.24,30.15,16,8,23,0.00
2013-3-3,48,34,20,26,19,14,79,57,36,30.15,29.83,17,9,25,0.00
2013-3-4,60,47,38,43,35,26,81,62,48,29.84,29.62,20,12,29,0.00
2013-3-5,48,37,31,42,25,18,85,62,46,30.19,29.76,26,16,40,0.00
2013-3-6,43,33,29,23,19,16,66,56,39,30.33,30.19,23,10,36,0.00
2013-3-7,58,42,28,31,25,19,73,54,28,30.26,30.15,16,8,21,0.00
2013-3-8,57,46,36,34,32,29,77,58,39,30.25,30.05,20,13,27,0.00
2013-3-9,71,57,44,51,41,32,81,57,31,30.07,29.70,29,17,47,0.00
2013-3-10,61,52,35,55,47,30,89,83,62,29.78,29.60,22,12,31,0.00
2013-3-11,41,34,29,31,26,23,86,74,51,29.94,29.75,14,10,27,0.00
2013-3-12,52,40,30,26,23,20,73,52,31,30.23,29.92,21,9,32,0.00
2013-3-13,47,37,27,23,19,15,68,50,29,30.39,30.22,17,7,23,0.00
2013-3-14,72,51,33,41,29,19,68,45,28,30.32,30.04,22,10,32,0.00
2013-3-15,81,67,55,48,43,40,63,44,27,30.06,29.71,21,11,29,0.00
2013-3-16,69,55,41,47,42,36,81,62,41,29.92,29.69,19,12,27,0.00
2013-3-17,41,38,36,36,34,32,88,86,82,29.95,29.66,21,11,28,0.00
2013-3-18,54,43,37,37,34,25,90,72,35,29.99,29.63,19,8,29,0.00
2013-3-19,47,39,29,31,22,9,78,53,21,30.18,29.99,14,5,19,0.00
2013-3-20,41,36,30,31,17,-3,84,51,17,30.25,30.06,29,10,35,0.00
2013-3-21,36,29,25,28,16,7,86,60,35,30.07,29.85,12,6,16,0.00
2013-3-22,36,33,31,33,30,27,90,87,85,29.91,29.84,10,7,15,0.00
2013-3-23,48,40,35,39,34,30,90,78,60,29.92,29.72,13,7,19,0.00
2013-3-24,41,34,29,37,30,22,89,84,75,29.93,29.53,25,15,41,0.00
2013-3-25,34,29,24,26,22,18,83,76,66,30.19,29.90,16,11,27,0.00
2013-3-26,42,33,24,25,22,19,83,67,45,30.32,30.19,13,6,19,0.00
2013-3-27,54,41,26,29,24,20,79,55,30,30.29,30.17,17,7,22,0.00
2013-3-28,64,53,44,41,36,28,75,53,38,30.21,30.11,15,9,19,0.00
2013-3-29,64,56,49,52,46,38,91,73,53,30.17,30.11,15,6,37,0.00
2013-3-30,59,53,49,51,46,-100,88,81,68,30.12,29.85,22,10,27,0.00
2013-3-31,68,58,50,51,44,35,91,63,30,29.93,29.84,19,6,33,0.00